createdAt,value
2022-11-16T00:00:30.054Z,990.85
2022-11-16T00:01:30.031Z,990.86
2022-11-16T00:02:30.065Z,990.85
2022-11-16T00:03:30.018Z,990.84
2022-11-16T00:04:30.003Z,990.83
2022-11-16T00:05:30.028Z,990.82
2022-11-16T00:06:29.988Z,990.81
2022-11-16T00:07:29.979Z,990.81
2022-11-16T00:08:30.252Z,990.82
2022-11-16T00:09:29.951Z,990.83
2022-11-16T00:10:29.951Z,990.85
2022-11-16T00:11:29.936Z,990.85
2022-11-16T00:12:29.912Z,990.85
2022-11-16T00:13:29.898Z,990.85
2022-11-16T00:14:29.909Z,990.85
2022-11-16T00:15:29.893Z,990.86
2022-11-16T00:16:29.874Z,990.87
2022-11-16T00:17:29.850Z,990.87
2022-11-16T00:18:30.081Z,990.89
2022-11-16T00:19:29.864Z,990.89
2022-11-16T00:20:29.820Z,990.90
2022-11-16T00:21:29.825Z,990.90
2022-11-16T00:22:29.807Z,990.89
2022-11-16T00:23:29.794Z,990.89
2022-11-16T00:24:29.789Z,990.90
2022-11-16T00:25:29.768Z,990.91
2022-11-16T00:26:29.763Z,990.91
2022-11-16T00:27:29.769Z,990.92
2022-11-16T00:28:29.768Z,990.93
2022-11-16T00:29:29.734Z,990.95
2022-11-16T00:30:29.775Z,990.95
2022-11-16T00:31:29.750Z,990.95
2022-11-16T00:32:29.696Z,990.95
2022-11-16T00:33:30.313Z,990.94
2022-11-16T00:34:29.685Z,990.95
2022-11-16T00:35:29.667Z,990.94
2022-11-16T00:36:29.657Z,990.94
2022-11-16T00:37:29.645Z,990.94
2022-11-16T00:38:29.657Z,990.94
2022-11-16T00:39:29.632Z,990.93
2022-11-16T00:40:29.606Z,990.92
2022-11-16T00:41:29.596Z,990.90
2022-11-16T00:42:29.600Z,990.90
2022-11-16T00:43:29.578Z,990.90
2022-11-16T00:44:29.576Z,990.89
2022-11-16T00:45:29.551Z,990.89
2022-11-16T00:46:29.551Z,990.89
2022-11-16T00:47:29.560Z,990.89
2022-11-16T00:48:29.522Z,990.89
2022-11-16T00:49:29.508Z,990.89
2022-11-16T00:50:29.509Z,990.90
2022-11-16T00:51:29.495Z,990.90
2022-11-16T00:52:29.475Z,990.91
2022-11-16T00:53:29.478Z,990.92
2022-11-16T00:54:29.455Z,990.93
2022-11-16T00:55:29.450Z,990.93
2022-11-16T00:56:29.433Z,990.94
2022-11-16T00:57:29.420Z,990.93
2022-11-16T00:58:29.416Z,990.91
2022-11-16T00:59:29.420Z,990.91
2022-11-16T01:00:29.392Z,990.91
2022-11-16T01:01:29.461Z,990.89
2022-11-16T01:02:29.368Z,990.86
2022-11-16T01:03:29.355Z,990.83
2022-11-16T01:04:29.359Z,990.80
2022-11-16T01:05:29.351Z,990.78
2022-11-16T01:06:29.333Z,990.77
2022-11-16T01:07:29.393Z,990.75
2022-11-16T01:08:29.301Z,990.75
2022-11-16T01:09:29.292Z,990.74
2022-11-16T01:10:29.286Z,990.75
2022-11-16T01:11:29.268Z,990.74
2022-11-16T01:12:29.269Z,990.72
2022-11-16T01:13:29.264Z,990.74
2022-11-16T01:14:29.240Z,990.77
2022-11-16T01:15:29.219Z,990.77
2022-11-16T01:16:29.220Z,990.77
2022-11-16T01:17:29.211Z,990.77
2022-11-16T01:18:29.199Z,990.75
2022-11-16T01:19:29.207Z,990.74
2022-11-16T01:20:29.178Z,990.72
2022-11-16T01:21:29.157Z,990.71
2022-11-16T01:22:29.153Z,990.70
2022-11-16T01:23:29.143Z,990.69
2022-11-16T01:24:29.134Z,990.68
2022-11-16T01:25:29.137Z,990.68
2022-11-16T01:26:29.112Z,990.68
2022-11-16T01:27:29.100Z,990.66
2022-11-16T01:28:29.080Z,990.67
2022-11-16T01:29:29.069Z,990.66
2022-11-16T01:30:29.072Z,990.65
2022-11-16T01:31:29.064Z,990.64
2022-11-16T01:32:29.057Z,990.63
2022-11-16T01:33:29.031Z,990.61
2022-11-16T01:34:29.027Z,990.61
2022-11-16T01:35:29.004Z,990.60
2022-11-16T01:36:29.002Z,990.59
2022-11-16T01:37:29.062Z,990.56
2022-11-16T01:38:30.139Z,990.54
2022-11-16T01:39:28.989Z,990.53
2022-11-16T01:40:28.959Z,990.51
2022-11-16T01:41:28.942Z,990.50
2022-11-16T01:42:28.947Z,990.51
2022-11-16T01:43:28.933Z,990.50
2022-11-16T01:44:28.921Z,990.50
2022-11-16T01:45:28.905Z,990.50
2022-11-16T01:46:28.901Z,990.50
2022-11-16T01:47:28.870Z,990.50
2022-11-16T01:48:28.927Z,990.48
2022-11-16T01:49:28.859Z,990.47
2022-11-16T01:50:28.847Z,990.47
2022-11-16T01:51:28.844Z,990.46
2022-11-16T01:52:28.830Z,990.46
2022-11-16T01:53:28.811Z,990.44
2022-11-16T01:54:28.800Z,990.45
2022-11-16T01:55:28.787Z,990.44
2022-11-16T01:56:28.797Z,990.42
2022-11-16T01:57:28.765Z,990.42
2022-11-16T01:58:28.757Z,990.42
2022-11-16T01:59:28.747Z,990.41
2022-11-16T02:00:28.757Z,990.39
2022-11-16T02:01:28.845Z,990.37
2022-11-16T02:02:28.712Z,990.36
2022-11-16T02:03:28.703Z,990.36
2022-11-16T02:04:28.697Z,990.36
2022-11-16T02:05:28.698Z,990.36
2022-11-16T02:06:28.673Z,990.36
2022-11-16T02:07:28.700Z,990.36
2022-11-16T02:08:28.648Z,990.36
2022-11-16T02:09:28.633Z,990.35
2022-11-16T06:00:53.578Z,990.28
2022-11-16T06:01:54.526Z,990.27
2022-11-16T06:02:54.609Z,990.27
2022-11-16T06:03:54.511Z,990.26
2022-11-16T06:04:54.501Z,990.27
2022-11-16T06:05:54.496Z,990.27
2022-11-16T06:06:54.545Z,990.29
2022-11-16T06:07:54.482Z,990.29
2022-11-16T06:08:54.458Z,990.29
2022-11-16T06:09:54.450Z,990.29
2022-11-16T06:10:54.430Z,990.29
2022-11-16T06:11:54.417Z,990.30
2022-11-16T06:12:54.429Z,990.32
2022-11-16T06:13:54.413Z,990.33
2022-11-16T06:14:54.385Z,990.32
2022-11-16T06:16:00.390Z,990.32
2022-11-16T06:16:54.391Z,990.34
2022-11-16T06:17:54.354Z,990.35
2022-11-16T06:18:54.299Z,990.35
2022-11-16T06:19:54.291Z,990.33
2022-11-16T06:20:54.260Z,990.33
2022-11-16T06:21:54.307Z,990.36
2022-11-16T06:22:54.241Z,990.35
2022-11-16T06:23:54.245Z,990.34
2022-11-16T06:24:54.228Z,990.39
2022-11-16T06:25:54.214Z,990.37
2022-11-16T06:26:54.206Z,990.40
2022-11-16T06:27:54.212Z,990.43
2022-11-16T06:28:54.174Z,990.45
2022-11-16T06:29:54.185Z,990.46
2022-11-16T06:30:54.157Z,990.49
2022-11-16T06:31:54.162Z,990.50
2022-11-16T06:32:54.138Z,990.48
2022-11-16T06:33:54.126Z,990.50
2022-11-16T06:34:54.115Z,990.51
2022-11-16T06:35:54.118Z,990.50
2022-11-16T06:36:54.088Z,990.49
2022-11-16T06:37:54.084Z,990.49
2022-11-16T06:38:54.066Z,990.47
2022-11-16T06:39:54.063Z,990.49
2022-11-16T06:40:54.066Z,990.49
2022-11-16T06:41:54.061Z,990.50
2022-11-16T06:42:54.028Z,990.52
2022-11-16T06:43:54.016Z,990.50
2022-11-16T06:44:54.007Z,990.51
2022-11-16T06:45:53.994Z,990.50
2022-11-16T06:46:53.999Z,990.45
2022-11-16T06:47:53.997Z,990.44
2022-11-16T06:48:53.959Z,990.46
2022-11-16T06:49:53.954Z,990.48
2022-11-16T06:50:53.944Z,990.51
2022-11-16T06:51:53.933Z,990.52
2022-11-16T06:52:53.913Z,990.53
2022-11-16T06:53:53.930Z,990.56
2022-11-16T06:54:53.898Z,990.56
2022-11-16T06:55:53.892Z,990.60
2022-11-16T06:56:53.888Z,990.56
2022-11-16T06:57:53.864Z,990.53
2022-11-16T06:58:53.887Z,990.55
2022-11-16T06:59:53.868Z,990.55
2022-11-16T07:00:53.834Z,990.56
2022-11-16T07:01:53.901Z,990.58
2022-11-16T07:02:53.813Z,990.60
2022-11-16T07:03:53.806Z,990.62
2022-11-16T07:04:53.803Z,990.62
2022-11-16T07:05:53.775Z,990.64
2022-11-16T07:06:53.850Z,990.63
2022-11-16T07:07:53.755Z,990.64
2022-11-16T07:08:53.773Z,990.65
2022-11-16T07:09:53.743Z,990.66
2022-11-16T07:10:53.722Z,990.67
2022-11-16T07:11:53.735Z,990.67
2022-11-16T07:12:53.710Z,990.71
2022-11-16T07:13:53.697Z,990.70
2022-11-16T07:14:53.711Z,990.71
2022-11-16T07:15:53.677Z,990.77
2022-11-16T07:16:59.080Z,990.79
2022-11-16T07:17:53.683Z,990.80
2022-11-16T07:18:53.639Z,990.82
2022-11-16T07:19:53.634Z,990.81
2022-11-16T07:20:53.625Z,990.80
2022-11-16T07:21:53.608Z,990.84
2022-11-16T07:22:53.594Z,990.83
2022-11-16T07:23:53.604Z,990.86
2022-11-16T07:24:53.570Z,990.85
2022-11-16T07:25:53.583Z,990.83
2022-11-16T07:26:53.559Z,990.85
2022-11-16T07:27:53.535Z,990.85
2022-11-16T07:28:53.534Z,990.86
2022-11-16T07:29:53.533Z,990.88
2022-11-16T07:30:53.510Z,990.88
2022-11-16T07:31:53.499Z,990.90
2022-11-16T07:32:53.490Z,990.91
2022-11-16T07:33:53.478Z,990.93
2022-11-16T07:34:53.464Z,990.93
2022-11-16T07:35:53.471Z,990.95
2022-11-16T07:36:53.441Z,990.97
2022-11-16T07:37:53.430Z,990.96
2022-11-16T07:38:53.490Z,990.98
2022-11-16T07:39:53.421Z,990.97
2022-11-16T07:40:53.406Z,990.99
2022-11-16T07:41:53.391Z,990.98
2022-11-16T07:42:53.403Z,991.01
2022-11-16T07:43:53.555Z,991.02
2022-11-16T07:44:53.420Z,991.03
2022-11-16T07:45:53.364Z,991.03
2022-11-16T07:46:53.339Z,991.05
2022-11-16T07:47:53.336Z,991.04
2022-11-16T07:48:53.315Z,991.03
2022-11-16T07:49:53.308Z,991.04
2022-11-16T07:50:53.302Z,991.04
2022-11-16T07:51:53.287Z,991.04
2022-11-16T07:52:53.284Z,991.04
2022-11-16T07:53:53.260Z,991.04
2022-11-16T07:54:53.242Z,991.05
2022-11-16T07:55:53.250Z,991.03
2022-11-16T07:56:53.225Z,991.00
2022-11-16T07:57:53.692Z,991.00
2022-11-16T07:58:53.203Z,991.01
2022-11-16T07:59:53.219Z,991.01
2022-11-16T08:00:53.186Z,991.03
2022-11-16T08:01:53.229Z,991.05
2022-11-16T08:02:53.159Z,991.06
2022-11-16T08:03:53.194Z,991.07
2022-11-16T08:04:53.141Z,991.09
2022-11-16T08:05:53.150Z,991.10
2022-11-16T08:06:53.187Z,991.10
2022-11-16T08:07:53.114Z,991.10
2022-11-16T08:08:57.992Z,991.11
2022-11-16T08:09:53.170Z,991.12
2022-11-16T08:10:53.076Z,991.14
2022-11-16T08:11:53.068Z,991.15
2022-11-16T08:12:53.059Z,991.15
2022-11-16T08:13:53.075Z,991.18
2022-11-16T08:14:53.039Z,991.21
2022-11-16T08:15:53.039Z,991.21
2022-11-16T08:16:53.012Z,991.21
2022-11-16T08:17:53.015Z,991.20
2022-11-16T08:18:53.006Z,991.19
2022-11-16T08:19:53.000Z,991.18
2022-11-16T08:20:52.998Z,991.20
2022-11-16T08:21:52.970Z,991.17
2022-11-16T08:22:52.956Z,991.19
2022-11-16T08:23:58.098Z,991.19
2022-11-16T08:24:52.953Z,991.20
2022-11-16T08:25:52.929Z,991.23
2022-11-16T08:26:52.904Z,991.25
2022-11-16T08:27:52.900Z,991.28
2022-11-16T08:28:52.882Z,991.30
2022-11-16T08:29:52.890Z,991.31
2022-11-16T08:30:54.023Z,991.31
2022-11-16T08:31:52.849Z,991.31
2022-11-16T08:32:52.874Z,991.31
2022-11-16T08:33:52.828Z,991.33
2022-11-16T08:34:52.818Z,991.33
2022-11-16T08:35:52.823Z,991.36
2022-11-16T08:36:52.793Z,991.37
2022-11-16T08:37:52.781Z,991.40
2022-11-16T08:38:52.777Z,991.42
2022-11-16T08:39:52.785Z,991.43
2022-11-16T08:40:52.757Z,991.43
2022-11-16T08:41:52.742Z,991.44
2022-11-16T08:42:52.746Z,991.46
2022-11-16T08:43:52.709Z,991.48
2022-11-16T08:44:52.736Z,991.50
2022-11-16T08:45:52.695Z,991.49
2022-11-16T08:46:52.723Z,991.53
2022-11-16T08:48:03.183Z,991.54
2022-11-16T08:48:52.670Z,991.54
2022-11-16T08:49:52.656Z,991.55
2022-11-16T08:51:15.918Z,991.56
2022-11-16T08:51:52.645Z,991.58
2022-11-16T08:52:52.666Z,991.65
2022-11-16T08:53:52.608Z,991.64
2022-11-16T08:54:52.608Z,991.67
2022-11-16T08:55:52.592Z,991.67
2022-11-16T08:56:52.588Z,991.71
2022-11-16T08:57:52.571Z,991.70
2022-11-16T08:58:57.856Z,991.71
2022-11-16T08:59:52.563Z,991.74
2022-11-16T09:00:52.542Z,991.75
2022-11-16T09:01:52.620Z,991.76
2022-11-16T09:02:52.529Z,991.76
2022-11-16T09:03:52.500Z,991.77
2022-11-16T09:04:52.502Z,991.76
2022-11-16T09:05:52.500Z,991.75
2022-11-16T09:06:52.554Z,991.74
2022-11-16T09:07:52.453Z,991.76
2022-11-16T09:08:52.453Z,991.74
2022-11-16T09:09:52.436Z,991.75
2022-11-16T09:10:52.447Z,991.74
2022-11-16T09:11:52.420Z,991.72
2022-11-16T09:12:52.411Z,991.72
2022-11-16T09:13:52.386Z,991.72
2022-11-16T09:14:52.383Z,991.70
2022-11-16T09:15:52.371Z,991.68
2022-11-16T09:16:52.374Z,991.67
2022-11-16T09:17:52.351Z,991.65
2022-11-16T09:18:52.337Z,991.65
2022-11-16T09:19:52.324Z,991.67
2022-11-16T09:20:52.320Z,991.69
2022-11-16T09:21:52.321Z,991.70
2022-11-16T09:22:52.323Z,991.69
2022-11-16T09:23:52.291Z,991.71
2022-11-16T09:24:52.302Z,991.70
2022-11-16T09:25:52.263Z,991.74
2022-11-16T09:26:52.278Z,991.72
2022-11-16T09:27:52.258Z,991.74
2022-11-16T09:28:52.233Z,991.77
2022-11-16T09:29:52.234Z,991.81
2022-11-16T09:30:52.206Z,991.78
2022-11-16T09:31:52.199Z,991.81
2022-11-16T09:32:52.206Z,991.80
2022-11-16T09:33:52.197Z,991.80
2022-11-16T09:34:52.179Z,991.81
2022-11-16T09:35:52.151Z,991.82
2022-11-16T09:36:52.145Z,991.86
2022-11-16T09:37:52.128Z,991.86
2022-11-16T09:39:52.114Z,991.86
2022-11-16T09:40:52.103Z,991.88
2022-11-16T09:41:52.084Z,991.91
2022-11-16T09:42:52.079Z,991.94
2022-11-16T09:43:52.060Z,991.96
2022-11-16T09:44:52.134Z,991.97
2022-11-16T09:45:52.038Z,991.99
2022-11-16T09:46:52.054Z,992.00
2022-11-16T09:47:52.021Z,992.02
2022-11-16T09:48:52.039Z,992.05
2022-11-16T09:49:52.004Z,992.09
2022-11-16T09:50:52.004Z,992.08
2022-11-16T09:51:51.978Z,992.10
2022-11-16T09:52:51.986Z,992.11
2022-11-16T09:53:51.956Z,992.14
2022-11-16T09:54:51.943Z,992.12
2022-11-16T09:55:51.939Z,992.13
2022-11-16T09:56:51.944Z,992.11
2022-11-16T09:57:51.913Z,992.13
2022-11-16T09:58:51.901Z,992.12
2022-11-16T09:59:51.904Z,992.11
2022-11-16T10:00:51.972Z,992.08
2022-11-16T10:01:51.868Z,992.06
2022-11-16T10:02:51.882Z,992.07
2022-11-16T10:03:51.851Z,992.05
2022-11-16T10:04:57.741Z,992.05
2022-11-16T10:05:51.865Z,992.04
2022-11-16T10:06:51.877Z,992.04
2022-11-16T10:07:51.818Z,992.04
2022-11-16T10:08:51.791Z,992.02
2022-11-16T10:09:51.781Z,992.01
2022-11-16T10:10:51.772Z,991.99
2022-11-16T10:11:51.766Z,991.99
2022-11-16T10:12:51.767Z,991.99
2022-11-16T10:13:51.745Z,991.99
2022-11-16T10:14:51.731Z,992.00
2022-11-16T10:15:51.716Z,991.99
2022-11-16T10:16:51.709Z,992.00
2022-11-16T10:17:51.708Z,992.00
2022-11-16T10:18:51.690Z,992.00
2022-11-16T10:19:51.679Z,992.03
2022-11-16T10:20:51.669Z,992.00
2022-11-16T10:21:51.649Z,991.99
2022-11-16T10:22:51.641Z,992.00
2022-11-16T10:23:51.657Z,991.99
2022-11-16T10:24:51.622Z,992.01
2022-11-16T10:25:51.609Z,992.04
2022-11-16T10:26:51.601Z,992.02
2022-11-16T10:27:51.589Z,992.01
2022-11-16T10:28:51.582Z,992.00
2022-11-16T10:29:51.599Z,992.00
2022-11-16T10:30:51.560Z,991.98
2022-11-16T10:31:51.550Z,991.96
2022-11-16T10:32:51.543Z,991.95
2022-11-16T10:33:51.533Z,991.96
2022-11-16T10:34:51.511Z,991.96
2022-11-16T10:35:51.522Z,991.98
2022-11-16T10:36:51.506Z,992.00
2022-11-16T10:37:51.481Z,991.98
2022-11-16T10:38:51.479Z,991.97
2022-11-16T10:39:51.469Z,991.98
2022-11-16T10:40:51.468Z,991.95
2022-11-16T10:41:51.435Z,991.94
2022-11-16T10:42:51.426Z,991.93
2022-11-16T10:43:51.418Z,991.94
2022-11-16T10:44:51.432Z,991.92
2022-11-16T10:45:51.398Z,991.93
2022-11-16T10:46:51.379Z,991.92
2022-11-16T10:47:51.385Z,991.92
2022-11-16T10:48:51.365Z,991.91
2022-11-16T10:49:51.349Z,991.90
2022-11-16T10:50:51.353Z,991.89
2022-11-16T10:51:51.338Z,991.83
2022-11-16T10:52:51.341Z,991.86
2022-11-16T10:53:51.309Z,991.86
2022-11-16T10:54:51.303Z,991.86
2022-11-16T10:55:51.307Z,991.86
2022-11-16T10:56:51.283Z,991.86
2022-11-16T10:57:51.266Z,991.85
2022-11-16T10:58:51.253Z,991.84
2022-11-16T10:59:51.237Z,991.83
2022-11-16T11:00:51.309Z,991.82
2022-11-16T11:01:51.229Z,991.81
2022-11-16T11:02:51.217Z,991.79
2022-11-16T11:03:51.197Z,991.79
2022-11-16T11:04:51.211Z,991.77
2022-11-16T11:05:51.203Z,991.73
2022-11-16T11:06:51.247Z,991.73
2022-11-16T11:07:55.368Z,991.74
2022-11-16T11:08:51.159Z,991.71
2022-11-16T11:09:51.156Z,991.69
2022-11-16T11:10:51.159Z,991.68
2022-11-16T11:11:51.110Z,991.67
2022-11-16T11:12:51.113Z,991.67
2022-11-16T11:13:51.086Z,991.67
2022-11-16T11:14:51.085Z,991.67
2022-11-16T11:15:51.072Z,991.70
2022-11-16T11:16:51.059Z,991.69
2022-11-16T11:17:51.043Z,991.70
2022-11-16T11:18:51.059Z,991.71
2022-11-16T11:19:51.032Z,991.70
2022-11-16T11:20:51.015Z,991.71
2022-11-16T11:21:51.001Z,991.70
2022-11-16T11:22:51.073Z,991.69
2022-11-16T11:23:50.976Z,991.69
2022-11-16T11:24:50.992Z,991.68
2022-11-16T11:25:50.961Z,991.69
2022-11-16T11:26:50.942Z,991.69
2022-11-16T11:27:50.930Z,991.68
2022-11-16T11:28:50.926Z,991.68
2022-11-16T11:29:50.911Z,991.69
2022-11-16T11:30:50.925Z,991.69
2022-11-16T11:31:50.934Z,991.66
2022-11-16T11:32:50.894Z,991.65
2022-11-16T11:33:50.875Z,991.64
2022-11-16T11:34:50.871Z,991.64
2022-11-16T11:35:50.845Z,991.63
2022-11-16T11:36:50.837Z,991.64
2022-11-16T11:37:50.842Z,991.63
2022-11-16T11:38:50.880Z,991.61
2022-11-16T11:39:50.819Z,991.58
2022-11-16T11:40:50.798Z,991.57
2022-11-16T11:41:50.784Z,991.56
2022-11-16T11:42:50.770Z,991.54
2022-11-16T11:43:50.776Z,991.56
2022-11-16T11:44:50.755Z,991.54
2022-11-16T11:45:50.769Z,991.54
2022-11-16T11:47:59.565Z,991.51
2022-11-16T11:48:50.752Z,991.51
2022-11-16T11:49:50.696Z,991.52
2022-11-16T11:50:50.743Z,991.55
2022-11-16T11:51:50.674Z,991.56
2022-11-16T11:52:50.666Z,991.55
2022-11-16T11:53:50.645Z,991.49
2022-11-16T11:54:50.641Z,991.47
2022-11-16T11:55:50.624Z,991.49
2022-11-16T11:56:50.631Z,991.49
2022-11-16T11:57:50.621Z,991.49
2022-11-16T11:58:50.607Z,991.50
2022-11-16T11:59:50.585Z,991.51
2022-11-16T12:00:50.580Z,991.52
2022-11-16T12:01:50.566Z,991.51
2022-11-16T12:02:50.608Z,991.47
2022-11-16T12:03:50.553Z,991.43
2022-11-16T12:04:50.533Z,991.42
2022-11-16T12:05:50.547Z,991.42
2022-11-16T12:06:50.591Z,991.39
2022-11-16T12:07:50.497Z,991.36
2022-11-16T12:08:50.493Z,991.36
2022-11-16T12:09:50.836Z,991.36
2022-11-16T12:10:50.472Z,991.36
2022-11-16T12:11:50.455Z,991.36
2022-11-16T12:12:50.456Z,991.36
2022-11-16T12:13:50.443Z,991.37
2022-11-16T12:14:50.444Z,991.37
2022-11-16T12:15:50.423Z,991.38
2022-11-16T12:16:56.457Z,991.38
2022-11-16T12:17:50.393Z,991.37
2022-11-16T12:18:50.399Z,991.38
2022-11-16T12:19:50.370Z,991.37
2022-11-16T12:20:50.363Z,991.36
2022-11-16T12:21:50.348Z,991.37
2022-11-16T12:22:59.735Z,991.36
2022-11-16T12:23:50.331Z,991.35
2022-11-16T12:24:50.443Z,991.35
2022-11-16T12:25:50.303Z,991.34
2022-11-16T12:26:50.402Z,991.34
2022-11-16T12:27:50.287Z,991.33
2022-11-16T12:28:51.361Z,991.31
2022-11-16T12:29:50.402Z,991.30
2022-11-16T12:30:50.262Z,991.30
2022-11-16T12:31:50.275Z,991.29
2022-11-16T12:32:50.273Z,991.28
2022-11-16T12:33:50.256Z,991.26
2022-11-16T12:34:50.229Z,991.25
2022-11-16T12:35:50.202Z,991.24
2022-11-16T12:36:50.211Z,991.24
2022-11-16T12:37:50.208Z,991.23
2022-11-16T12:38:50.162Z,991.20
2022-11-16T12:39:50.160Z,991.20
2022-11-16T12:40:50.155Z,991.19
2022-11-16T12:41:50.131Z,991.19
2022-11-16T12:42:50.128Z,991.19
2022-11-16T12:43:50.127Z,991.19
2022-11-16T12:44:50.094Z,991.20
2022-11-16T12:45:50.090Z,991.19
2022-11-16T12:46:50.104Z,991.18
2022-11-16T12:47:50.084Z,991.17
2022-11-16T12:48:50.103Z,991.19
2022-11-16T12:49:50.041Z,991.20
2022-11-16T12:50:50.047Z,991.20
2022-11-16T12:51:50.058Z,991.20
2022-11-16T12:52:50.018Z,991.20
2022-11-16T12:53:50.032Z,991.20
2022-11-16T12:55:19.093Z,991.17
2022-11-16T12:55:49.989Z,991.17
2022-11-16T12:56:49.968Z,991.17
2022-11-16T12:57:49.955Z,991.16
2022-11-16T12:58:49.950Z,991.14
2022-11-16T12:59:50.030Z,991.12
2022-11-16T13:00:49.974Z,991.10
2022-11-16T13:01:49.919Z,991.08
2022-11-16T13:02:49.900Z,991.05
2022-11-16T13:03:49.939Z,991.03
2022-11-16T13:04:49.900Z,991.00
2022-11-16T13:05:49.906Z,990.98
2022-11-16T13:06:49.938Z,990.95
2022-11-16T13:07:49.852Z,990.93
2022-11-16T13:08:49.880Z,990.93
2022-11-16T13:09:49.846Z,990.94
2022-11-16T13:10:49.830Z,990.92
2022-11-16T13:11:49.832Z,990.91
2022-11-16T13:12:52.656Z,990.91
2022-11-16T13:13:53.610Z,990.89
2022-11-16T13:14:49.771Z,990.86
2022-11-16T13:15:49.760Z,990.85
2022-11-16T13:16:49.762Z,990.82
2022-11-16T13:17:49.775Z,990.81
2022-11-16T13:18:49.756Z,990.80
2022-11-16T13:19:49.729Z,990.77
2022-11-16T13:20:49.708Z,990.74
2022-11-16T13:21:49.730Z,990.74
2022-11-16T13:22:49.736Z,990.73
2022-11-16T13:23:49.693Z,990.73
2022-11-16T13:24:49.663Z,990.72
2022-11-16T13:25:49.791Z,990.73
2022-11-16T13:26:49.701Z,990.74
2022-11-16T13:27:49.650Z,990.72
2022-11-16T13:28:49.634Z,990.71
2022-11-16T13:29:49.612Z,990.70
2022-11-16T13:30:49.594Z,990.69
2022-11-16T13:31:49.594Z,990.68
2022-11-16T13:32:49.593Z,990.67
2022-11-16T13:33:51.359Z,990.64
2022-11-16T13:34:49.576Z,990.61
2022-11-16T13:35:49.551Z,990.59
2022-11-16T13:36:49.531Z,990.57
2022-11-16T13:37:49.526Z,990.54
2022-11-16T13:38:49.518Z,990.54
2022-11-16T13:39:49.521Z,990.56
2022-11-16T13:40:49.500Z,990.53
2022-11-16T13:41:49.497Z,990.51
2022-11-16T13:42:49.463Z,990.51
2022-11-16T13:43:49.462Z,990.51
2022-11-16T13:44:51.689Z,990.49
2022-11-16T13:45:49.437Z,990.46
2022-11-16T13:46:55.955Z,990.45
2022-11-16T13:47:49.422Z,990.46
2022-11-16T13:48:49.410Z,990.43
2022-11-16T13:49:49.393Z,990.42
2022-11-16T13:50:49.609Z,990.37
2022-11-16T13:51:49.376Z,990.35
2022-11-16T13:54:44.148Z,990.33
2022-11-16T13:54:50.612Z,990.36
2022-11-16T13:55:49.333Z,990.34
2022-11-16T13:56:49.368Z,990.32
2022-11-16T13:57:49.310Z,990.33
2022-11-16T13:58:49.314Z,990.32
2022-11-16T13:59:49.286Z,990.33
2022-11-16T14:00:49.366Z,990.33
2022-11-16T14:01:49.257Z,990.36
2022-11-16T14:02:49.253Z,990.37
2022-11-16T14:03:49.243Z,990.39
2022-11-16T14:04:49.243Z,990.42
2022-11-16T14:05:49.307Z,990.42
2022-11-16T14:06:49.232Z,990.42
2022-11-16T14:07:49.211Z,990.40
2022-11-16T14:08:49.177Z,990.41
2022-11-16T14:09:49.190Z,990.40
2022-11-16T14:10:49.180Z,990.36
2022-11-16T14:11:49.164Z,990.35
2022-11-16T14:12:49.141Z,990.36
2022-11-16T14:13:49.153Z,990.36
2022-11-16T14:14:49.114Z,990.36
2022-11-16T14:15:49.119Z,990.35
2022-11-16T14:16:49.142Z,990.34
2022-11-16T14:17:49.091Z,990.31
2022-11-16T14:18:49.093Z,990.30
2022-11-16T14:19:49.074Z,990.28
2022-11-16T14:20:49.077Z,990.28
2022-11-16T14:21:49.062Z,990.27
2022-11-16T14:22:49.044Z,990.26
2022-11-16T14:23:49.062Z,990.24
2022-11-16T14:24:49.014Z,990.22
2022-11-16T14:25:49.004Z,990.20
2022-11-16T14:26:49.008Z,990.17
2022-11-16T14:27:48.975Z,990.15
2022-11-16T14:28:48.968Z,990.13
2022-11-16T14:29:48.957Z,990.11
2022-11-16T14:30:48.951Z,990.10
2022-11-16T14:31:48.956Z,990.06
2022-11-16T14:32:48.938Z,990.08
2022-11-16T14:33:48.931Z,990.08
2022-11-16T14:34:48.906Z,990.10
2022-11-16T14:35:48.886Z,990.13
2022-11-16T14:36:48.919Z,990.16
2022-11-16T14:37:48.904Z,990.19
2022-11-16T14:38:48.859Z,990.21
2022-11-16T14:39:48.870Z,990.22
2022-11-16T14:40:48.851Z,990.23
2022-11-16T14:41:48.876Z,990.22
2022-11-16T14:43:14.886Z,990.19
2022-11-16T14:43:48.810Z,990.18
2022-11-16T14:44:48.817Z,990.17
2022-11-16T14:45:48.783Z,990.17
2022-11-16T14:46:48.783Z,990.18
2022-11-16T14:47:48.788Z,990.16
2022-11-16T14:48:48.753Z,990.15
2022-11-16T14:49:48.754Z,990.14
2022-11-16T14:50:48.721Z,990.14
2022-11-16T14:51:48.716Z,990.14
2022-11-16T14:52:48.719Z,990.12
2022-11-16T14:53:48.698Z,990.13
2022-11-16T14:54:48.696Z,990.16
2022-11-16T14:55:48.694Z,990.18
2022-11-16T14:56:48.682Z,990.19
2022-11-16T14:57:48.675Z,990.19
2022-11-16T14:58:48.672Z,990.16
2022-11-16T14:59:48.628Z,990.15
2022-11-16T15:00:48.622Z,990.13
2022-11-16T15:01:48.615Z,990.12
2022-11-16T15:02:51.766Z,990.12
2022-11-16T15:03:48.682Z,990.11
2022-11-16T15:04:48.581Z,990.11
2022-11-16T15:05:48.569Z,990.10
2022-11-16T15:06:48.758Z,990.08
2022-11-16T15:07:48.566Z,990.06
2022-11-16T15:08:48.573Z,990.04
2022-11-16T15:09:48.544Z,990.02
2022-11-16T15:10:52.384Z,990.01
2022-11-16T15:11:48.521Z,990.00
2022-11-16T15:12:48.522Z,989.99
2022-11-16T15:13:48.537Z,989.97
2022-11-16T15:14:48.543Z,989.97
2022-11-16T15:15:48.476Z,989.97
2022-11-16T15:16:48.484Z,989.97
2022-11-16T15:17:48.486Z,989.96
2022-11-16T15:18:48.423Z,989.96
2022-11-16T15:19:48.438Z,989.96
2022-11-16T15:20:48.421Z,989.95
2022-11-16T15:21:48.398Z,989.96
2022-11-16T15:22:48.388Z,989.98
2022-11-16T15:23:56.882Z,990.02
2022-11-16T15:24:48.381Z,990.04
2022-11-16T15:25:48.355Z,990.04
2022-11-16T15:26:48.354Z,990.03
2022-11-16T15:27:48.353Z,990.01
2022-11-16T15:28:50.187Z,990.02
2022-11-16T15:29:48.306Z,990.03
2022-11-16T15:30:48.297Z,990.03
2022-11-16T15:31:48.344Z,990.04
2022-11-16T15:32:48.265Z,990.03
2022-11-16T15:33:48.295Z,990.02
2022-11-16T15:34:48.265Z,990.04
2022-11-16T15:35:48.236Z,990.02
2022-11-16T15:36:48.229Z,990.02
2022-11-16T15:37:48.248Z,990.00
2022-11-16T15:38:48.206Z,990.00
2022-11-16T15:39:48.195Z,989.99
2022-11-16T15:40:48.192Z,989.99
2022-11-16T15:41:48.172Z,989.98
2022-11-16T15:42:48.183Z,989.96
2022-11-16T15:44:11.688Z,989.95
2022-11-16T15:44:48.160Z,989.93
2022-11-16T15:45:48.138Z,989.90
2022-11-16T15:46:48.131Z,989.89
2022-11-16T15:47:48.141Z,989.87
2022-11-16T15:48:48.113Z,989.87
2022-11-16T15:49:48.087Z,989.88
2022-11-16T15:50:48.068Z,989.89
2022-11-16T15:51:48.064Z,989.89
2022-11-16T15:52:48.069Z,989.90
2022-11-16T15:53:48.070Z,989.91
2022-11-16T15:54:48.035Z,989.91
2022-11-16T15:55:48.045Z,989.91
2022-11-16T15:56:48.025Z,989.91
2022-11-16T15:57:48.016Z,989.90
2022-11-16T15:58:48.007Z,989.88
2022-11-16T15:59:48.025Z,989.83
2022-11-16T16:00:47.970Z,989.81
2022-11-16T16:01:47.986Z,989.79
2022-11-16T16:02:47.939Z,989.76
2022-11-16T16:03:47.951Z,989.73
2022-11-16T16:04:47.931Z,989.71
2022-11-16T16:05:47.907Z,989.68
2022-11-16T16:06:47.951Z,989.67
2022-11-16T16:07:47.959Z,989.67
2022-11-16T16:08:47.936Z,989.67
2022-11-16T16:09:47.927Z,989.67
2022-11-16T16:10:47.908Z,989.65
2022-11-16T16:11:47.907Z,989.64
2022-11-16T16:12:47.903Z,989.65
2022-11-16T16:13:47.897Z,989.66
2022-11-16T16:14:47.858Z,989.67
2022-11-16T16:15:47.864Z,989.67
2022-11-16T16:16:47.838Z,989.66
2022-11-16T16:17:47.842Z,989.65
2022-11-16T16:18:47.855Z,989.65
2022-11-16T16:19:47.823Z,989.66
2022-11-16T16:20:47.797Z,989.66
2022-11-16T16:21:47.874Z,989.65